Time;durP1;ratioP1;P1;durP2;ratioP2;P2;SDS_P1;SDS_P2;PMS_P1;PMS_P2;Temp;Humidity;BMP_temperature;BMP_pressure;BME280_temperature;BME280_humidity;BME280_pressure;Samples;Min_cycle;Max_cycle;Signal;HPM_P1;HPM_P2
2023/08/26 00:01:52;;;;;;;2.73;2.23;;;25.40;45.40;;;;;;5133405;27;20261;-53
2023/08/26 00:04:19;;;;;;;6.07;2.17;;;25.40;45.60;;;;;;5133392;27;20194;-51
2023/08/26 00:06:45;;;;;;;3.63;2.57;;;25.30;45.60;;;;;;5133362;27;20434;-57
2023/08/26 00:09:11;;;;;;;8.77;2.63;;;25.30;45.60;;;;;;5133205;27;20412;-54
2023/08/26 00:11:37;;;;;;;4.37;3.00;;;25.30;45.80;;;;;;5133277;27;20656;-52
2023/08/26 00:14:03;;;;;;;7.63;1.80;;;25.30;46.00;;;;;;5133439;27;20443;-54
2023/08/26 00:16:29;;;;;;;3.73;2.50;;;25.30;46.00;;;;;;5133221;27;20460;-51
2023/08/26 00:18:59;;;;;;;5.53;2.40;;;25.20;46.00;;;;;;5133150;27;20403;-53
2023/08/26 00:21:25;;;;;;;14.67;2.40;;;25.20;45.90;;;;;;5133123;27;20646;-55
2023/08/26 00:23:51;;;;;;;4.10;2.37;;;25.20;45.80;;;;;;5132922;27;20460;-52
2023/08/26 00:26:17;;;;;;;9.30;2.83;;;25.10;45.80;;;;;;5132831;27;20948;-52
2023/08/26 00:28:44;;;;;;;6.97;2.47;;;25.10;46.00;;;;;;5133138;27;20419;-55
2023/08/26 00:31:09;;;;;;;3.37;2.10;;;25.10;46.10;;;;;;5133040;27;20170;-52
2023/08/26 00:33:35;;;;;;;3.83;2.30;;;25.10;46.30;;;;;;5133056;27;20406;-52
2023/08/26 00:36:01;;;;;;;3.80;2.40;;;25.10;46.20;;;;;;5132476;27;20238;-54
2023/08/26 00:38:28;;;;;;;4.53;2.30;;;25.10;46.10;;;;;;5132842;27;20159;-51
2023/08/26 00:40:54;;;;;;;4.30;1.90;;;25.10;46.40;;;;;;5137472;27;20402;-50
2023/08/26 00:43:20;;;;;;;4.27;2.17;;;25.10;46.40;;;;;;5140137;27;20487;-53
2023/08/26 00:45:48;;;;;;;5.40;3.13;;;25.10;46.30;;;;;;5139798;27;20510;-52
2023/08/26 00:48:15;;;;;;;4.47;2.20;;;25.10;46.40;;;;;;5139779;27;20173;-52
2023/08/26 00:50:43;;;;;;;4.13;2.20;;;25.10;46.60;;;;;;5139586;27;20976;-52
2023/08/26 00:53:14;;;;;;;4.33;2.20;;;25.10;46.70;;;;;;5139664;27;20483;-53
2023/08/26 00:55:41;;;;;;;2.83;2.33;;;25.10;46.60;;;;;;5139558;27;20439;-54
2023/08/26 00:58:07;;;;;;;6.50;2.30;;;25.10;46.60;;;;;;5139775;27;20761;-53
2023/08/26 01:00:35;;;;;;;6.40;1.97;;;25.10;46.70;;;;;;5139543;27;20787;-53
2023/08/26 01:03:01;;;;;;;10.03;2.93;;;25.10;46.60;;;;;;5139640;27;20432;-53
2023/08/26 01:05:28;;;;;;;4.03;2.47;;;25.10;46.10;;;;;;5139114;27;20396;-55
2023/08/26 01:07:55;;;;;;;3.23;2.10;;;25.10;46.20;;;;;;5139818;27;20399;-53
2023/08/26 01:10:31;;;;;;;5.00;3.00;;;25.10;46.50;;;;;;5139704;27;20404;-50
2023/08/26 01:13:05;;;;;;;8.93;2.27;;;25.10;46.60;;;;;;5139662;27;20403;-54
2023/08/26 01:15:34;;;;;;;4.83;2.73;;;25.10;46.50;;;;;;5139409;27;20407;-53
2023/08/26 01:18:05;;;;;;;3.83;2.20;;;25.10;46.60;;;;;;5139713;27;20433;-50
2023/08/26 01:20:33;;;;;;;4.07;2.63;;;25.10;46.60;;;;;;5139502;27;20387;-52
2023/08/26 01:23:00;;;;;;;9.30;3.27;;;25.20;46.80;;;;;;5139486;27;20408;-57
2023/08/26 01:25:26;;;;;;;3.60;2.87;;;25.20;46.70;;;;;;5139056;27;20411;-53
2023/08/26 01:27:57;;;;;;;2.93;2.67;;;25.20;46.50;;;;;;5139376;27;20567;-55
2023/08/26 01:30:27;;;;;;;6.40;3.53;;;25.30;46.70;;;;;;5139305;27;20492;-51
2023/08/26 01:32:56;;;;;;;5.53;2.90;;;25.30;46.60;;;;;;5139646;27;20477;-56
2023/08/26 01:35:28;;;;;;;5.60;3.53;;;25.30;46.40;;;;;;5138927;27;20569;-53
2023/08/26 01:37:57;;;;;;;10.43;3.70;;;25.30;46.50;;;;;;5139537;27;20394;-52
2023/08/26 01:40:23;;;;;;;4.90;3.97;;;25.40;46.20;;;;;;5139263;27;20971;-54
2023/08/26 01:42:51;;;;;;;5.97;3.43;;;25.40;46.10;;;;;;5139090;27;20509;-55
2023/08/26 01:45:17;;;;;;;4.43;3.57;;;25.40;46.40;;;;;;5138988;27;20403;-54
2023/08/26 01:47:44;;;;;;;6.07;3.70;;;25.40;46.30;;;;;;5139343;27;20430;-53
2023/08/26 01:50:09;;;;;;;6.83;3.13;;;25.40;46.40;;;;;;5139224;27;20407;-53
2023/08/26 01:52:35;;;;;;;5.33;3.70;;;25.40;46.50;;;;;;5135580;27;20400;-54
2023/08/26 01:55:01;;;;;;;5.30;3.70;;;25.40;46.50;;;;;;5135646;27;20266;-53
2023/08/26 01:57:26;;;;;;;3.97;3.57;;;25.50;46.60;;;;;;5135577;27;20209;-51
2023/08/26 01:59:52;;;;;;;3.97;3.57;;;25.50;46.70;;;;;;5135801;27;20174;-55
2023/08/26 02:02:18;;;;;;;7.73;4.57;;;25.50;46.70;;;;;;5135841;27;20640;-51
2023/08/26 02:04:44;;;;;;;5.10;4.23;;;25.60;46.90;;;;;;5135411;27;20528;-54
2023/08/26 02:07:10;;;;;;;4.30;4.00;;;25.60;47.10;;;;;;5135639;27;20440;-55
2023/08/26 02:09:35;;;;;;;5.80;4.60;;;25.60;47.10;;;;;;5135865;27;20678;-52
2023/08/26 02:12:01;;;;;;;4.63;3.60;;;25.60;47.10;;;;;;5135392;27;20563;-53
2023/08/26 02:14:27;;;;;;;4.73;4.00;;;25.50;47.20;;;;;;5135590;27;20174;-54
2023/08/26 02:16:53;;;;;;;11.23;5.03;;;25.50;47.30;;;;;;5135341;27;20205;-52
2023/08/26 02:19:19;;;;;;;6.30;4.33;;;25.50;47.30;;;;;;5135681;27;20174;-53
2023/08/26 02:21:44;;;;;;;5.33;4.17;;;25.60;47.40;;;;;;5135586;27;20746;-56
2023/08/26 02:24:10;;;;;;;5.97;5.27;;;25.50;47.60;;;;;;5135213;27;20173;-56
2023/08/26 02:26:36;;;;;;;5.00;4.60;;;25.50;47.70;;;;;;5135063;27;20194;-51
2023/08/26 02:29:03;;;;;;;6.53;4.83;;;25.50;47.80;;;;;;5135220;27;20647;-51
2023/08/26 02:31:28;;;;;;;5.10;4.57;;;25.50;47.80;;;;;;5135517;27;20776;-56
2023/08/26 02:33:54;;;;;;;4.90;4.40;;;25.40;47.80;;;;;;5135330;27;20404;-52
2023/08/26 02:36:20;;;;;;;7.07;4.47;;;25.40;47.80;;;;;;5134629;27;20691;-54
2023/08/26 02:38:46;;;;;;;4.80;4.30;;;25.40;48.10;;;;;;5135164;27;20167;-55
2023/08/26 02:41:11;;;;;;;5.33;4.40;;;25.40;48.20;;;;;;5134946;27;20194;-52
2023/08/26 02:43:37;;;;;;;5.80;5.00;;;25.40;48.40;;;;;;5134967;27;20173;-57
2023/08/26 02:46:03;;;;;;;5.03;4.43;;;25.50;48.60;;;;;;5134600;27;20201;-55
2023/08/26 02:48:29;;;;;;;6.53;4.97;;;25.50;48.70;;;;;;5134868;27;20167;-53
2023/08/26 02:50:58;;;;;;;4.53;3.93;;;25.50;48.80;;;;;;5134827;27;20215;-54
2023/08/26 02:53:25;;;;;;;4.90;4.13;;;25.50;48.50;;;;;;5134843;27;20423;-53
2023/08/26 02:55:51;;;;;;;4.77;4.27;;;25.50;48.40;;;;;;5134191;27;20459;-53
2023/08/26 02:58:18;;;;;;;6.30;5.70;;;25.60;48.60;;;;;;5134681;27;20396;-56
2023/08/26 03:00:44;;;;;;;4.97;4.47;;;25.50;49.00;;;;;;5135109;27;20404;-53
2023/08/26 03:03:10;;;;;;;5.23;4.63;;;25.50;49.00;;;;;;5134665;27;20752;-52
2023/08/26 03:05:36;;;;;;;6.43;5.30;;;25.50;49.20;;;;;;5134477;27;20166;-56
2023/08/26 03:08:02;;;;;;;6.40;5.80;;;25.50;49.40;;;;;;5134467;27;20667;-53
2023/08/26 03:10:28;;;;;;;7.60;5.40;;;25.50;49.50;;;;;;5134323;27;20492;-51
2023/08/26 03:12:54;;;;;;;7.33;4.97;;;25.50;50.10;;;;;;5134352;27;20471;-55
2023/08/26 03:15:20;;;;;;;8.00;5.67;;;25.50;49.50;;;;;;5134249;27;20656;-52
2023/08/26 03:17:47;;;;;;;5.67;5.17;;;25.50;49.70;;;;;;5134186;27;20435;-52
2023/08/26 03:20:13;;;;;;;7.20;4.93;;;25.50;49.60;;;;;;5134158;27;20397;-55
2023/08/26 03:22:39;;;;;;;6.03;5.50;;;25.50;49.80;;;;;;5132960;27;20472;-53
2023/08/26 03:25:05;;;;;;;7.97;5.63;;;25.50;49.90;;;;;;5133771;27;20896;-54
2023/08/26 03:27:31;;;;;;;5.30;4.70;;;25.50;49.90;;;;;;5134023;27;20545;-52
2023/08/26 03:29:56;;;;;;;5.13;4.70;;;25.50;49.90;;;;;;5134072;27;20498;-55
2023/08/26 03:32:22;;;;;;;6.47;4.80;;;25.50;49.80;;;;;;5134014;27;20174;-53
2023/08/26 03:34:48;;;;;;;6.17;5.33;;;25.60;49.70;;;;;;5133621;27;20214;-57
2023/08/26 03:37:14;;;;;;;6.80;5.37;;;25.60;49.50;;;;;;5134090;27;20255;-55
2023/08/26 03:39:40;;;;;;;5.13;4.73;;;25.60;49.50;;;;;;5133754;27;20177;-53
2023/08/26 03:42:06;;;;;;;7.23;5.60;;;25.60;49.20;;;;;;5133992;27;20396;-54
2023/08/26 03:44:31;;;;;;;7.90;5.33;;;25.60;49.20;;;;;;5133603;27;20170;-56
2023/08/26 03:46:57;;;;;;;10.73;5.50;;;25.60;49.20;;;;;;5133629;27;20198;-53
2023/08/26 03:49:23;;;;;;;6.20;5.60;;;25.70;49.20;;;;;;5133680;27;20166;-57
2023/08/26 03:51:49;;;;;;;5.37;4.83;;;25.70;49.20;;;;;;5133640;27;20257;-52
2023/08/26 03:54:14;;;;;;;5.53;5.03;;;25.70;49.80;;;;;;5133343;27;20186;-52
2023/08/26 03:56:40;;;;;;;7.33;5.03;;;25.70;49.20;;;;;;5133385;27;20195;-55
2023/08/26 03:59:06;;;;;;;6.60;5.60;;;25.70;49.10;;;;;;5133686;27;20170;-56
2023/08/26 04:01:32;;;;;;;6.40;5.67;;;25.80;49.10;;;;;;5133760;27;20175;-51
2023/08/26 04:03:58;;;;;;;6.47;5.97;;;25.80;49.00;;;;;;5133333;27;20407;-56
2023/08/26 04:06:24;;;;;;;5.63;5.13;;;25.90;49.10;;;;;;5133474;27;20529;-54
2023/08/26 04:08:49;;;;;;;6.70;5.87;;;25.90;49.00;;;;;;5133524;27;20427;-57
2023/08/26 04:11:17;;;;;;;6.20;5.60;;;25.90;49.00;;;;;;5133333;27;20640;-56
2023/08/26 04:13:45;;;;;;;6.57;5.83;;;25.90;49.10;;;;;;5133187;27;20259;-52
2023/08/26 04:16:11;;;;;;;5.10;4.70;;;25.90;49.10;;;;;;5132581;27;20452;-57
2023/08/26 04:18:37;;;;;;;5.67;5.17;;;26.00;49.60;;;;;;5133101;27;20898;-54
2023/08/26 04:21:03;;;;;;;7.07;6.10;;;26.00;49.70;;;;;;5133420;27;20400;-53
2023/08/26 04:23:30;;;;;;;6.83;6.13;;;26.00;49.70;;;;;;5133077;27;20294;-57
2023/08/26 04:26:02;;;;;;;6.97;6.30;;;26.00;49.90;;;;;;5132999;27;20419;-53
2023/08/26 04:28:29;;;;;;;6.50;6.00;;;26.00;50.20;;;;;;5133505;27;20416;-57
2023/08/26 04:30:56;;;;;;;8.60;7.00;;;26.00;50.40;;;;;;5133112;27;20411;-57
2023/08/26 04:33:22;;;;;;;11.10;6.20;;;26.00;50.50;;;;;;5132933;27;20415;-53
2023/08/26 04:35:47;;;;;;;5.73;5.23;;;26.00;50.60;;;;;;5132349;27;20456;-55
2023/08/26 04:38:13;;;;;;;7.73;6.53;;;26.00;50.80;;;;;;5132949;27;20261;-52
2023/08/26 04:40:41;;;;;;;7.33;5.97;;;26.00;50.90;;;;;;5133121;27;20203;-54
2023/08/26 04:43:10;;;;;;;8.30;6.40;;;26.00;50.90;;;;;;5133251;27;20174;-55
2023/08/26 04:45:37;;;;;;;6.97;6.20;;;26.00;51.00;;;;;;5132647;27;20409;-52
2023/08/26 04:48:07;;;;;;;8.00;7.10;;;26.00;51.20;;;;;;5132844;27;20823;-56
2023/08/26 04:50:34;;;;;;;8.60;6.87;;;26.00;51.30;;;;;;5133143;27;20471;-52
2023/08/26 04:53:00;;;;;;;7.67;6.27;;;26.00;51.30;;;;;;5132830;27;21012;-53
2023/08/26 04:55:26;;;;;;;8.97;6.90;;;26.00;51.50;;;;;;5132689;27;20782;-55
2023/08/26 04:57:52;;;;;;;7.10;6.40;;;26.00;51.60;;;;;;5132739;27;20403;-52
2023/08/26 05:00:18;;;;;;;7.60;6.57;;;26.00;51.60;;;;;;5132760;27;20174;-57
2023/08/26 05:02:44;;;;;;;10.73;7.10;;;26.00;51.70;;;;;;5132852;27;20404;-56
2023/08/26 05:05:10;;;;;;;8.20;7.40;;;26.00;51.60;;;;;;5132775;28;20407;-52
2023/08/26 05:07:36;;;;;;;7.30;6.57;;;26.00;51.80;;;;;;5132973;27;20237;-53
2023/08/26 05:10:03;;;;;;;8.43;7.63;;;26.00;51.90;;;;;;5133015;27;21022;-56
2023/08/26 05:12:32;;;;;;;8.47;7.63;;;26.00;52.10;;;;;;5132627;27;20209;-54
2023/08/26 05:14:58;;;;;;;8.27;7.40;;;26.00;52.10;;;;;;5132438;27;20396;-51
2023/08/26 05:17:24;;;;;;;9.67;8.73;;;26.00;52.20;;;;;;5132639;27;20458;-57
2023/08/26 05:19:50;;;;;;;7.30;6.47;;;26.00;52.30;;;;;;5132830;27;20524;-57
2023/08/26 05:22:16;;;;;;;7.70;6.33;;;26.00;52.10;;;;;;5132531;27;20167;-52
2023/08/26 05:24:42;;;;;;;9.20;7.37;;;26.00;52.10;;;;;;5132448;27;20407;-54
2023/08/26 05:27:07;;;;;;;7.50;6.70;;;26.00;52.20;;;;;;5133763;27;20415;-56
2023/08/26 05:29:33;;;;;;;7.27;6.57;;;26.00;52.20;;;;;;5136398;27;20404;-53
2023/08/26 05:31:59;;;;;;;8.47;6.47;;;26.00;52.30;;;;;;5136459;27;20173;-51
2023/08/26 05:34:25;;;;;;;8.73;7.00;;;26.00;52.40;;;;;;5135942;27;20420;-55
2023/08/26 05:36:51;;;;;;;8.30;7.07;;;25.90;52.00;;;;;;5136118;27;20455;-53
2023/08/26 05:39:17;;;;;;;6.77;6.07;;;26.00;52.60;;;;;;5136221;27;20441;-52
2023/08/26 05:41:43;;;;;;;7.50;6.73;;;25.90;52.40;;;;;;5136174;27;20400;-53
2023/08/26 05:44:08;;;;;;;7.73;6.10;;;26.00;52.90;;;;;;5135902;27;20207;-56
2023/08/26 05:46:34;;;;;;;6.83;6.23;;;25.90;52.50;;;;;;5135960;27;20210;-53
2023/08/26 05:49:00;;;;;;;6.93;6.10;;;26.00;53.10;;;;;;5136326;27;20253;-56
2023/08/26 05:51:26;;;;;;;8.37;6.70;;;25.90;52.70;;;;;;5136004;27;20315;-53
2023/08/26 05:53:53;;;;;;;7.13;5.73;;;25.90;52.70;;;;;;5136042;27;20178;-53
2023/08/26 05:56:19;;;;;;;7.83;6.70;;;26.00;53.10;;;;;;5135533;27;20443;-56
2023/08/26 05:58:44;;;;;;;9.13;6.83;;;26.00;53.10;;;;;;5135915;27;20475;-51
2023/08/26 06:01:10;;;;;;;8.60;7.30;;;26.00;53.20;;;;;;5135647;27;20628;-54
2023/08/26 06:03:36;;;;;;;7.60;6.60;;;26.00;53.20;;;;;;5135780;27;20167;-56
2023/08/26 06:06:03;;;;;;;8.20;7.10;;;26.00;53.30;;;;;;5135348;27;20194;-51
2023/08/26 06:08:29;;;;;;;7.50;6.73;;;26.00;53.30;;;;;;5135914;27;20223;-52
2023/08/26 06:10:56;;;;;;;9.10;6.83;;;26.00;53.40;;;;;;5135726;27;20777;-57
2023/08/26 06:13:21;;;;;;;7.90;6.17;;;26.00;53.60;;;;;;5135945;27;20167;-54
2023/08/26 06:15:56;;;;;;;8.40;7.60;;;26.00;53.40;;;;;;5135261;27;20924;-52
2023/08/26 06:18:23;;;;;;;8.40;7.57;;;26.00;53.60;;;;;;5135743;27;20216;-58
2023/08/26 06:20:52;;;;;;;9.17;7.60;;;25.90;52.90;;;;;;5135581;27;20401;-59
2023/08/26 06:23:21;;;;;;;7.97;7.00;;;26.00;53.50;;;;;;5135411;27;20487;-53
2023/08/26 06:26:04;;;;;;;9.73;8.10;;;26.00;53.80;;;;;;5135117;27;20466;-57
2023/08/26 06:28:30;;;;;;;8.90;7.30;;;26.00;54.00;;;;;;5135655;27;20398;-52
2023/08/26 06:30:58;;;;;;;8.70;7.70;;;25.90;53.80;;;;;;5135382;27;20408;-53
2023/08/26 06:33:24;;;;;;;9.47;7.90;;;25.90;53.90;;;;;;5135338;27;20400;-53
2023/08/26 06:35:49;;;;;;;8.57;7.80;;;26.00;54.30;;;;;;5134736;27;20859;-52
2023/08/26 06:38:16;;;;;;;8.37;7.40;;;25.90;53.90;;;;;;5134533;27;20201;-57
2023/08/26 06:40:42;;;;;;;7.03;6.40;;;26.00;54.20;;;;;;5134974;27;20492;-51
2023/08/26 06:43:08;;;;;;;9.97;7.90;;;26.00;54.20;;;;;;5135272;27;20201;-58
2023/08/26 06:45:34;;;;;;;10.57;7.83;;;26.00;54.30;;;;;;5134795;27;20245;-53
2023/08/26 06:48:00;;;;;;;8.20;6.07;;;26.00;54.40;;;;;;5134890;27;20403;-52
2023/08/26 06:50:25;;;;;;;7.87;7.00;;;26.00;54.00;;;;;;5135195;27;20170;-54
2023/08/26 06:52:52;;;;;;;7.60;6.80;;;26.00;53.80;;;;;;5135048;27;20404;-53
2023/08/26 06:55:18;;;;;;;6.90;6.20;;;26.00;53.80;;;;;;5134410;27;20170;-55
2023/08/26 06:57:45;;;;;;;9.20;7.60;;;26.00;53.90;;;;;;5134561;27;20542;-52
2023/08/26 07:00:12;;;;;;;9.57;6.97;;;26.00;54.10;;;;;;5134935;27;20412;-52
2023/08/26 07:02:38;;;;;;;13.80;6.87;;;26.00;54.10;;;;;;5134569;27;20897;-58
2023/08/26 07:05:04;;;;;;;10.30;7.80;;;26.00;54.00;;;;;;5134303;27;20396;-59
2023/08/26 07:07:30;;;;;;;8.83;8.03;;;26.00;54.10;;;;;;5134427;27;20229;-53
2023/08/26 07:09:56;;;;;;;8.27;7.40;;;26.00;54.10;;;;;;5134426;27;20428;-57
2023/08/26 07:12:21;;;;;;;12.57;7.50;;;26.10;54.50;;;;;;5134415;27;20261;-51
2023/08/26 07:14:47;;;;;;;11.80;6.53;;;26.00;54.50;;;;;;5134365;27;20420;-52
2023/08/26 07:17:17;;;;;;;12.30;8.17;;;26.10;54.50;;;;;;5134312;27;20214;-57
2023/08/26 07:19:42;;;;;;;9.00;8.20;;;26.10;54.40;;;;;;5134350;27;20412;-55
2023/08/26 07:22:08;;;;;;;8.57;7.20;;;26.20;54.60;;;;;;5134229;27;20404;-53
2023/08/26 07:24:34;;;;;;;8.20;6.73;;;26.20;54.40;;;;;;5134055;27;20487;-55
2023/08/26 07:27:00;;;;;;;7.90;7.10;;;26.20;54.10;;;;;;5134165;27;20272;-51
2023/08/26 07:29:26;;;;;;;7.77;6.87;;;26.20;54.10;;;;;;5134325;27;20412;-53
2023/08/26 07:31:51;;;;;;;7.33;6.63;;;26.30;54.20;;;;;;5134154;27;20202;-56
2023/08/26 07:34:17;;;;;;;7.90;6.70;;;26.40;54.10;;;;;;5133897;27;20174;-52
2023/08/26 07:36:43;;;;;;;6.50;5.90;;;26.40;54.00;;;;;;5133830;27;20198;-54
2023/08/26 07:39:09;;;;;;;9.40;7.40;;;26.50;54.20;;;;;;5133795;27;20211;-54
2023/08/26 07:41:35;;;;;;;7.40;6.80;;;26.50;53.90;;;;;;5134109;27;20177;-51
2023/08/26 07:44:01;;;;;;;7.97;6.87;;;26.50;53.80;;;;;;5133687;27;20178;-53
2023/08/26 07:46:26;;;;;;;6.33;5.73;;;26.60;53.70;;;;;;5133801;27;20515;-58
2023/08/26 07:48:52;;;;;;;9.03;6.90;;;26.60;54.60;;;;;;5133607;27;20440;-52
2023/08/26 07:51:18;;;;;;;7.53;6.57;;;26.70;53.90;;;;;;5133048;27;20535;-58
2023/08/26 07:53:44;;;;;;;7.77;6.97;;;26.70;53.70;;;;;;5133575;27;20195;-53
2023/08/26 07:56:10;;;;;;;9.47;5.80;;;26.80;53.60;;;;;;5133433;27;20206;-57
2023/08/26 07:58:36;;;;;;;5.97;5.37;;;26.90;53.70;;;;;;5133394;27;20885;-52
2023/08/26 08:01:02;;;;;;;6.33;5.77;;;27.00;53.90;;;;;;5133492;27;20443;-58
2023/08/26 08:03:28;;;;;;;6.63;5.40;;;27.20;53.50;;;;;;5133534;27;20166;-58
2023/08/26 08:05:53;;;;;;;5.37;4.73;;;27.30;53.50;;;;;;5133126;27;20454;-53
2023/08/26 08:08:19;;;;;;;8.17;5.20;;;27.40;52.10;;;;;;5133292;27;20171;-53
2023/08/26 08:10:45;;;;;;;6.27;5.40;;;27.50;51.20;;;;;;5133680;27;20208;-58
2023/08/26 08:13:11;;;;;;;5.67;5.00;;;27.60;52.20;;;;;;5133292;27;20651;-53
2023/08/26 08:15:37;;;;;;;5.47;4.13;;;27.80;53.10;;;;;;5132861;27;20652;-54
2023/08/26 08:18:03;;;;;;;5.37;4.30;;;27.90;52.40;;;;;;5133360;27;20396;-58
2023/08/26 08:20:32;;;;;;;6.17;4.77;;;28.00;51.80;;;;;;5132055;27;20171;-52
2023/08/26 08:22:57;;;;;;;5.33;4.70;;;28.00;51.70;;;;;;5133019;27;20819;-55
2023/08/26 08:25:24;;;;;;;7.10;5.03;;;28.00;51.10;;;;;;5132897;27;20419;-59
2023/08/26 08:27:50;;;;;;;5.17;4.50;;;28.00;50.90;;;;;;5133229;27;20257;-53
2023/08/26 08:30:16;;;;;;;6.70;4.40;;;28.00;50.90;;;;;;5133366;27;20971;-54
2023/08/26 08:32:42;;;;;;;4.60;4.20;;;28.10;51.40;;;;;;5133238;27;20197;-52
2023/08/26 08:35:08;;;;;;;5.20;4.70;;;28.10;50.00;;;;;;5132655;27;20819;-59
2023/08/26 08:37:34;;;;;;;7.80;4.80;;;28.10;50.10;;;;;;5132741;27;20722;-54
2023/08/26 08:40:00;;;;;;;8.43;4.47;;;28.10;49.60;;;;;;5132923;27;20414;-52
2023/08/26 08:42:26;;;;;;;8.30;4.47;;;28.20;50.60;;;;;;5132922;27;20400;-54
2023/08/26 08:44:55;;;;;;;4.13;3.73;;;28.20;49.60;;;;;;5132738;27;20194;-55
2023/08/26 08:47:21;;;;;;;6.00;3.20;;;28.30;50.10;;;;;;5132820;27;20435;-52
2023/08/26 08:49:48;;;;;;;6.80;3.90;;;28.30;48.70;;;;;;5133068;28;20517;-53
2023/08/26 08:52:15;;;;;;;4.10;3.80;;;28.40;49.10;;;;;;5132788;27;20460;-55
2023/08/26 08:54:44;;;;;;;4.40;2.33;;;28.60;48.40;;;;;;5132741;27;20415;-54
2023/08/26 08:57:13;;;;;;;3.70;3.10;;;28.60;46.80;;;;;;5132772;27;20492;-54
2023/08/26 08:59:40;;;;;;;8.50;4.27;;;28.70;46.00;;;;;;5132850;27;20497;-54
2023/08/26 09:02:06;;;;;;;4.37;3.00;;;28.80;46.50;;;;;;5135497;27;20412;-52
2023/08/26 09:04:32;;;;;;;3.70;3.40;;;28.90;46.30;;;;;;5136584;27;20400;-54
2023/08/26 09:06:59;;;;;;;3.57;3.20;;;28.80;45.50;;;;;;5136894;27;20201;-57
2023/08/26 09:09:24;;;;;;;7.03;3.23;;;28.80;44.60;;;;;;5136804;27;20493;-52
2023/08/26 09:11:50;;;;;;;3.90;3.53;;;28.80;44.00;;;;;;5136792;27;20544;-56
2023/08/26 09:14:16;;;;;;;4.70;3.63;;;28.80;45.30;;;;;;5136853;27;20751;-53
2023/08/26 09:16:43;;;;;;;3.47;3.17;;;28.80;46.50;;;;;;5136775;27;20451;-58
2023/08/26 09:19:13;;;;;;;5.87;3.60;;;28.80;45.90;;;;;;5136567;27;20399;-57
2023/08/26 09:21:46;;;;;;;4.90;3.50;;;28.80;44.60;;;;;;5136772;27;20400;-53
2023/08/26 09:24:16;;;;;;;4.47;3.43;;;28.60;43.70;;;;;;5136411;27;20407;-57
2023/08/26 09:26:43;;;;;;;4.77;3.60;;;28.60;44.20;;;;;;5136362;27;20424;-52
2023/08/26 09:29:19;;;;;;;3.90;3.10;;;28.60;44.30;;;;;;5136430;27;20412;-51
2023/08/26 09:31:46;;;;;;;3.67;3.37;;;28.70;44.30;;;;;;5136221;27;20777;-58
2023/08/26 09:34:13;;;;;;;3.67;3.37;;;28.60;45.30;;;;;;5136227;27;20491;-53
2023/08/26 09:36:39;;;;;;;3.90;3.50;;;28.70;44.60;;;;;;5136408;27;20461;-57
2023/08/26 09:39:12;;;;;;;4.40;3.50;;;28.70;44.10;;;;;;5136338;27;20405;-55
2023/08/26 09:41:38;;;;;;;4.03;3.30;;;28.80;43.40;;;;;;5136449;27;20395;-53
2023/08/26 09:44:05;;;;;;;3.70;3.27;;;28.90;43.60;;;;;;5135974;27;20770;-55
2023/08/26 09:46:36;;;;;;;10.30;3.90;;;29.10;44.90;;;;;;5135031;27;20425;-57
2023/08/26 09:49:03;;;;;;;4.03;3.60;;;29.30;44.80;;;;;;5136371;27;20497;-52
2023/08/26 09:51:31;;;;;;;4.17;3.77;;;29.40;43.10;;;;;;5136280;27;20418;-52
2023/08/26 09:53:58;;;;;;;9.07;3.73;;;29.50;43.60;;;;;;5135911;27;20408;-57
2023/08/26 09:56:25;;;;;;;6.33;3.50;;;29.60;43.40;;;;;;5135729;27;20451;-57
2023/08/26 09:58:52;;;;;;;5.20;3.73;;;29.90;43.70;;;;;;5135744;27;20807;-54
2023/08/26 10:01:20;;;;;;;4.57;3.70;;;30.00;42.10;;;;;;5135823;27;20440;-58
2023/08/26 10:03:51;;;;;;;4.07;3.60;;;30.20;42.10;;;;;;5135855;27;20957;-57
2023/08/26 10:06:20;;;;;;;5.93;3.60;;;30.40;42.00;;;;;;5135553;27;20561;-52
2023/08/26 10:08:50;;;;;;;5.23;3.50;;;30.50;40.90;;;;;;5135648;27;20440;-57
2023/08/26 10:11:20;;;;;;;4.53;3.23;;;30.50;39.80;;;;;;5135839;27;20402;-57
2023/08/26 10:13:50;;;;;;;6.33;3.37;;;30.40;39.20;;;;;;5134822;27;20827;-51
2023/08/26 10:16:19;;;;;;;3.83;3.13;;;30.30;39.30;;;;;;5135164;27;20456;-55
2023/08/26 10:18:55;;;;;;;4.57;3.07;;;30.10;39.50;;;;;;5135393;27;20400;-56
2023/08/26 10:21:22;;;;;;;3.43;2.73;;;30.00;38.00;;;;;;5135516;27;20419;-52
2023/08/26 10:23:48;;;;;;;3.00;2.47;;;30.00;38.50;;;;;;5135622;27;20460;-58
2023/08/26 10:26:16;;;;;;;5.77;3.10;;;30.00;38.30;;;;;;5135018;27;20828;-56
2023/08/26 10:28:44;;;;;;;6.23;3.23;;;30.00;38.80;;;;;;5135424;27;20408;-52
2023/08/26 10:31:09;;;;;;;4.90;2.70;;;29.90;36.40;;;;;;5135316;27;20457;-58
2023/08/26 10:33:58;;;;;;;4.20;2.60;;;29.90;37.70;;;;;;5135245;27;20402;-56
2023/08/26 10:36:24;;;;;;;4.83;2.20;;;30.00;36.90;;;;;;5134697;27;20241;-56
2023/08/26 10:38:57;;;;;;;6.27;2.67;;;30.00;38.60;;;;;;5135055;27;20835;-52
2023/08/26 10:41:25;;;;;;;2.77;2.30;;;29.90;37.40;;;;;;5135044;27;20412;-57
2023/08/26 10:43:56;;;;;;;6.93;2.60;;;29.90;36.60;;;;;;5134884;27;20781;-56
2023/08/26 10:46:37;;;;;;;4.20;2.77;;;29.80;37.20;;;;;;5134706;27;20964;-53
2023/08/26 10:49:03;;;;;;;2.83;2.10;;;29.80;37.10;;;;;;5134868;27;20467;-57
2023/08/26 10:51:31;;;;;;;6.17;4.00;;;29.90;38.40;;;;;;5134865;27;20413;-52
2023/08/26 10:54:05;;;;;;;4.43;2.23;;;30.00;37.90;;;;;;5134836;27;20521;-54
2023/08/26 10:56:37;;;;;;;4.43;2.57;;;30.10;37.40;;;;;;5134426;27;20960;-57
2023/08/26 10:59:04;;;;;;;4.77;2.50;;;30.20;38.80;;;;;;5134618;27;20414;-53
2023/08/26 11:01:35;;;;;;;3.53;2.30;;;30.40;38.60;;;;;;5134857;27;20404;-55
2023/08/26 11:04:03;;;;;;;3.90;2.47;;;30.60;40.00;;;;;;5134861;27;20491;-52
2023/08/26 11:06:39;;;;;;;9.23;2.70;;;30.70;38.30;;;;;;5134343;27;20434;-53
2023/08/26 11:09:05;;;;;;;3.00;2.50;;;30.90;38.30;;;;;;5134528;27;20408;-58
2023/08/26 11:11:32;;;;;;;6.90;2.60;;;31.00;38.40;;;;;;5134639;27;20412;-57
2023/08/26 11:13:58;;;;;;;3.10;2.67;;;31.10;38.10;;;;;;5133080;27;20447;-53
2023/08/26 11:16:24;;;;;;;4.67;2.73;;;31.20;37.20;;;;;;5133973;27;20486;-54
2023/08/26 11:18:53;;;;;;;3.70;2.50;;;31.20;37.90;;;;;;5134271;27;20178;-56
2023/08/26 11:21:18;;;;;;;5.27;2.63;;;31.40;38.30;;;;;;5134363;27;20458;-52
2023/08/26 11:23:47;;;;;;;6.13;3.20;;;31.60;38.80;;;;;;5134225;27;20922;-53
2023/08/26 11:26:20;;;;;;;10.00;5.37;;;31.60;37.90;;;;;;5133772;27;20206;-56
2023/08/26 11:28:49;;;;;;;4.47;3.30;;;31.80;37.70;;;;;;5134427;27;20407;-53
2023/08/26 11:31:16;;;;;;;2.80;2.33;;;31.80;37.30;;;;;;5134011;27;20827;-56
2023/08/26 11:33:42;;;;;;;5.40;2.93;;;31.90;37.40;;;;;;5134083;27;20782;-53
2023/08/26 11:36:07;;;;;;;7.70;2.70;;;32.00;36.70;;;;;;5133588;27;20471;-52
2023/08/26 11:38:37;;;;;;;6.10;3.07;;;32.10;37.60;;;;;;5132563;27;20416;-55
2023/08/26 11:41:06;;;;;;;7.10;5.13;;;32.10;37.20;;;;;;5134010;27;20258;-51
2023/08/26 11:43:35;;;;;;;9.97;3.30;;;32.30;36.60;;;;;;5133849;27;20803;-54
2023/08/26 11:46:00;;;;;;;5.07;2.83;;;32.30;36.90;;;;;;5133481;27;20424;-55
2023/08/26 11:48:27;;;;;;;8.27;4.10;;;32.40;37.30;;;;;;5133710;27;20461;-53
2023/08/26 11:51:00;;;;;;;3.53;2.83;;;32.50;36.60;;;;;;5133657;27;20811;-52
2023/08/26 11:53:27;;;;;;;6.47;3.43;;;32.60;35.90;;;;;;5133652;27;20394;-57
2023/08/26 11:55:54;;;;;;;6.07;3.07;;;32.60;36.30;;;;;;5133358;27;20428;-54
2023/08/26 11:58:19;;;;;;;5.57;2.97;;;32.60;35.40;;;;;;5133785;27;20408;-51
2023/08/26 12:00:45;;;;;;;5.67;3.57;;;32.70;36.60;;;;;;5133477;27;20427;-54
2023/08/26 12:03:11;;;;;;;6.40;3.30;;;32.70;37.10;;;;;;5133580;27;20230;-56
2023/08/26 12:05:49;;;;;;;4.20;3.50;;;32.70;34.80;;;;;;5133427;27;20208;-54
2023/08/26 12:08:21;;;;;;;7.73;2.93;;;32.80;34.10;;;;;;5133598;27;20197;-56
2023/08/26 12:10:50;;;;;;;9.20;3.40;;;32.70;33.70;;;;;;5133637;27;20453;-57
2023/08/26 12:13:16;;;;;;;4.13;3.03;;;32.80;33.60;;;;;;5133333;27;20459;-53
2023/08/26 12:15:42;;;;;;;5.70;3.33;;;32.70;33.90;;;;;;5133067;27;20403;-53
2023/08/26 12:18:09;;;;;;;4.10;2.70;;;32.80;36.60;;;;;;5133493;27;20568;-57
2023/08/26 12:20:36;;;;;;;6.17;2.83;;;32.90;35.80;;;;;;5133115;27;20901;-52
2023/08/26 12:23:04;;;;;;;6.90;2.93;;;33.00;34.40;;;;;;5133395;27;20396;-58
2023/08/26 12:25:38;;;;;;;4.50;3.10;;;33.20;35.10;;;;;;5132863;27;20489;-52
2023/08/26 12:28:23;;;;;;;6.03;3.70;;;33.20;35.80;;;;;;5133169;27;20396;-54
2023/08/26 12:30:50;;;;;;;7.70;3.60;;;33.10;35.90;;;;;;5133092;27;20404;-54
2023/08/26 12:33:16;;;;;;;8.50;3.40;;;33.00;35.90;;;;;;5133104;27;21077;-53
2023/08/26 12:35:44;;;;;;;5.23;2.50;;;33.00;35.90;;;;;;5132084;27;20432;-57
2023/08/26 12:38:10;;;;;;;7.70;3.50;;;33.10;36.10;;;;;;5133197;27;20443;-53
2023/08/26 12:40:38;;;;;;;4.97;3.30;;;33.10;35.60;;;;;;5132956;27;21073;-53
2023/08/26 12:43:05;;;;;;;5.97;3.33;;;33.10;35.80;;;;;;5132837;27;20188;-56
2023/08/26 12:45:31;;;;;;;4.60;3.40;;;33.10;35.10;;;;;;5132496;27;20445;-54